Finley, ND (58230)

2:45 PM CST on February 10, 2016 (GMT -0600)
North Portland | | Change Station
CLOSE
Current Station
Personal Weather Station
Location: Portland, ND
Elevation: 988 ft
Nearby Weather Stations

Elev 988 ft 47.50 °N, 97.37 °W | Updated 11 minutes ago

Overcast
Overcast
15.1 °F
Feels Like 10 °F
N
3.1
Wind Variable Wind from ESE

Today
High -- | Low -- °F
--% Chance of Precip.
Yesterday
High -- | Low -- °F
Precip. -- in
Pressure 30.26 in
Visibility 10.0 miles
Clouds Overcast 3400 ft
Windchill 10 °F
Dew Point 1 °F
Humidity 52%
Rainfall 0.00 in
Snow Depth Not available.
7:45 AM 5:45 PM
Waxing Crescent, 7% visible
METAR KRDR 101958Z AUTO 05006KT 10SM OVC034 M12/M19 A3017 RMK AO2 SNB25E38SNB43E56 SLP245 P0000 T11251189
Pressure 30.26 in
Visibility 10.0 miles
Clouds Overcast 3400 ft
Windchill 10 °F
Dew Point 1 °F
Humidity 52%
Rainfall 0.00 in
Snow Depth Not available.
7:45 AM 5:45 PM
Waxing Crescent, 7% visible
METAR KRDR 101958Z AUTO 05006KT 10SM OVC034 M12/M19 A3017 RMK AO2 SNB25E38SNB43E56 SLP245 P0000 T11251189

10-Day Weather Forecast

Almanac

Astronomy

Feb. 10, 2016 Rise Set
Actual Time
Civil Twilight
Nautical Twilight
Astronomical Twilight
Moon
Length of Visible Light
Length of Day
Tomorrow will be .
, % of the Moon is Illuminated

Today's Extremes

State Highs State Lows

Community

WunderPhotos

Upload Photos

1,891,945 photos uploaded!

WunderBlog® & News

Nearby

Air Quality

  Air Quality AQ Index Pollutant
Not available.

Snow Depth

Station Depth Elevation

Earthquake Activity

City Distance Mag. Time & Date
Minimum magnitude displayed is 2.5.

Coastal Water Temperatures

Place Temperature

Stations

Nearby Weather Stations

Station Location Temp. Windchill Dew Point Humidity Wind Precip. Elev Updated Type
                   

Watches & Warnings

There are currently no watches in effect.